createdAt,value
2022-11-28T00:00:34.446Z,97134.66
2022-11-28T00:03:05.609Z,97126.81
2022-11-28T00:05:46.763Z,97113.38
2022-11-28T00:08:18.857Z,97118.75
2022-11-28T00:10:55.579Z,97119.63
2022-11-28T00:13:29.344Z,97115.47
2022-11-28T00:15:59.638Z,97112.97
2022-11-28T00:18:30.000Z,97110.91
2022-11-28T00:21:07.736Z,97125.22
2022-11-28T00:23:39.327Z,97117.56
2022-11-28T00:26:18.865Z,97111.81
2022-11-28T00:31:37.503Z,97124.19
2022-11-28T00:34:08.079Z,97123.69
2022-11-28T00:36:38.839Z,97125.03
2022-11-28T00:39:17.847Z,97116.22
2022-11-28T00:41:50.752Z,97118.88
2022-11-28T00:44:23.800Z,97119.44
2022-11-28T00:46:52.556Z,97120.91
2022-11-28T00:49:21.287Z,97114.09
2022-11-28T00:51:50.048Z,97114.63
2022-11-28T00:54:19.326Z,97109.16
2022-11-28T00:56:50.275Z,97104.53
2022-11-28T00:59:21.099Z,97112.59
2022-11-28T01:01:55.237Z,97105.69
2022-11-28T01:04:25.663Z,97107.44
2022-11-28T01:06:55.533Z,97096.38
2022-11-28T01:09:28.348Z,97102.06
2022-11-28T01:12:00.867Z,97099.50
2022-11-28T01:14:34.096Z,97088.78
2022-11-28T01:17:03.837Z,97092.47
2022-11-28T01:19:33.974Z,97082.72
2022-11-28T01:22:03.476Z,97086.06
2022-11-28T01:24:32.507Z,97083.09
2022-11-28T01:27:06.710Z,97078.56
2022-11-28T01:29:40.004Z,97087.50
2022-11-28T01:32:14.544Z,97085.59
2022-11-28T01:34:44.429Z,97075.91
2022-11-28T01:37:15.092Z,97082.53
2022-11-28T01:39:45.565Z,97081.97
2022-11-28T01:42:21.489Z,97077.34
2022-11-28T01:45:15.198Z,97074.38
2022-11-28T01:47:44.186Z,97069.72
2022-11-28T01:50:13.277Z,97068.47
2022-11-28T01:52:45.670Z,97074.00
2022-11-28T01:55:15.407Z,97073.00
2022-11-28T01:57:48.050Z,97075.78
2022-11-28T02:00:19.468Z,97075.31
2022-11-28T02:02:51.907Z,97073.78
2022-11-28T02:05:23.870Z,97054.53
2022-11-28T02:07:53.026Z,97060.00
2022-11-28T02:10:27.102Z,97055.19
2022-11-28T02:13:08.605Z,97054.28
2022-11-28T02:15:52.623Z,97051.88
2022-11-28T02:18:32.329Z,97045.56
2022-11-28T02:21:17.779Z,97045.72
2022-11-28T02:24:11.700Z,97036.78
2022-11-28T02:26:59.451Z,97021.59
2022-11-28T02:29:43.209Z,97014.16
2022-11-28T02:32:17.546Z,97021.72
2022-11-28T02:34:50.501Z,97032.66
2022-11-28T02:37:28.527Z,97021.84
2022-11-28T02:40:05.557Z,97014.06
2022-11-28T02:42:42.211Z,97011.50
2022-11-28T02:45:13.618Z,97002.97
2022-11-28T02:47:46.516Z,97002.13
2022-11-28T02:50:17.344Z,96988.97
2022-11-28T02:52:51.945Z,96989.13
2022-11-28T02:55:22.002Z,97001.84
2022-11-28T02:57:51.995Z,96999.53
2022-11-28T03:00:28.333Z,97000.38
2022-11-28T03:03:07.883Z,96997.56
2022-11-28T03:05:41.296Z,97002.09
2022-11-28T03:08:18.469Z,96997.47
2022-11-28T03:10:50.730Z,97000.31
2022-11-28T03:13:24.241Z,96997.47
2022-11-28T03:15:56.599Z,96990.63
2022-11-28T03:18:27.999Z,97002.78
2022-11-28T03:20:57.867Z,96996.69
2022-11-28T03:23:32.182Z,96989.47
2022-11-28T03:26:01.909Z,97002.38
2022-11-28T03:28:32.663Z,96994.97
2022-11-28T03:31:06.942Z,96992.19
2022-11-28T03:33:40.555Z,97000.78
2022-11-28T03:36:11.716Z,97003.59
2022-11-28T03:38:41.567Z,96999.47
2022-11-28T03:44:01.472Z,97014.16
2022-11-28T03:46:35.092Z,97017.19
2022-11-28T03:49:05.424Z,97017.38
2022-11-28T03:51:35.398Z,97020.72
2022-11-28T03:54:09.636Z,97020.28
2022-11-28T03:56:40.343Z,97019.91
2022-11-28T03:59:11.358Z,97019.41
2022-11-28T04:01:46.099Z,97008.34
2022-11-28T04:04:18.436Z,97009.00
2022-11-28T04:06:54.029Z,97001.41
2022-11-28T04:09:27.659Z,97003.13
2022-11-28T04:12:00.786Z,96997.06
2022-11-28T04:14:34.574Z,96989.56
2022-11-28T04:17:05.691Z,96992.84
2022-11-28T04:19:37.536Z,96991.00
2022-11-28T04:22:10.133Z,96983.41
2022-11-28T04:24:43.047Z,96985.41
2022-11-28T04:27:14.206Z,96989.69
2022-11-28T04:29:45.082Z,96983.66
2022-11-28T04:32:14.385Z,96982.81
2022-11-28T04:34:48.731Z,96970.38
2022-11-28T04:37:17.681Z,96979.31
2022-11-28T04:39:50.009Z,96975.69
2022-11-28T04:42:20.893Z,96968.84
2022-11-28T04:44:51.361Z,96987.88
2022-11-28T04:47:20.806Z,96980.38
2022-11-28T04:49:51.144Z,96972.63
2022-11-28T04:52:21.850Z,96980.00
2022-11-28T04:54:54.484Z,96965.44
2022-11-28T04:57:25.940Z,96975.16
2022-11-28T04:59:57.411Z,96974.22
2022-11-28T05:02:27.342Z,96974.38
2022-11-28T05:04:58.621Z,96985.00
2022-11-28T05:07:27.423Z,96977.34
2022-11-28T05:09:58.034Z,96968.28
2022-11-28T05:12:27.931Z,96983.97
2022-11-28T05:14:57.061Z,96986.69
2022-11-28T05:17:25.782Z,96984.47
2022-11-28T05:19:55.624Z,96986.00
2022-11-28T05:22:29.940Z,96987.72
2022-11-28T05:24:59.491Z,96986.53
2022-11-28T05:27:28.660Z,96985.91
2022-11-28T05:29:58.079Z,96976.28
2022-11-28T05:32:28.075Z,96963.00
2022-11-28T05:34:58.363Z,96963.28
2022-11-28T05:37:34.117Z,96965.38
2022-11-28T05:40:03.061Z,96975.69
2022-11-28T05:43:16.124Z,96976.22
2022-11-28T05:45:45.768Z,96982.19
2022-11-28T05:48:15.203Z,96979.66
2022-11-28T05:50:44.630Z,96979.25
2022-11-28T05:53:14.808Z,96981.28
2022-11-28T05:55:43.807Z,96968.69
2022-11-28T05:58:12.594Z,96969.75
2022-11-28T06:00:41.604Z,96968.16
2022-11-28T06:03:11.496Z,96959.53
2022-11-28T06:05:43.855Z,96946.84
2022-11-28T06:08:14.646Z,96956.78
2022-11-28T06:10:43.522Z,96958.41
2022-11-28T06:13:13.565Z,96949.41
2022-11-28T06:15:45.371Z,96949.50
2022-11-28T06:18:14.225Z,96956.25
2022-11-28T06:20:43.266Z,96957.44
2022-11-28T06:23:14.773Z,96971.38
2022-11-28T06:25:43.507Z,96969.75
2022-11-28T06:28:13.779Z,96974.53
2022-11-28T06:30:44.565Z,96969.13
2022-11-28T06:33:16.274Z,96970.91
2022-11-28T06:35:45.124Z,96970.00
2022-11-28T06:38:15.816Z,96976.50
2022-11-28T06:40:44.908Z,96974.44
2022-11-28T06:43:16.599Z,96965.63
2022-11-28T06:46:04.337Z,96964.06
2022-11-28T06:48:42.728Z,96962.53
2022-11-28T06:51:19.911Z,96954.88
2022-11-28T06:53:50.439Z,96953.06
2022-11-28T06:56:21.146Z,96952.69
2022-11-28T06:58:54.465Z,96957.25
2022-11-28T07:01:24.888Z,96941.34
2022-11-28T07:03:55.015Z,96948.50
2022-11-28T07:06:26.950Z,96950.31
2022-11-28T07:08:57.590Z,96959.88
2022-11-28T07:11:26.887Z,96954.78
2022-11-28T07:13:55.692Z,96954.44
2022-11-28T07:16:25.664Z,96955.94
2022-11-28T07:18:55.434Z,96952.34
2022-11-28T07:21:24.664Z,96950.94
2022-11-28T07:23:53.667Z,96953.59
2022-11-28T07:26:23.778Z,96960.72
2022-11-28T07:28:53.039Z,96954.78
2022-11-28T07:31:23.175Z,96958.91
2022-11-28T07:33:52.275Z,96953.88
2022-11-28T07:36:24.745Z,96960.81
2022-11-28T07:38:55.241Z,96959.19
2022-11-28T07:41:30.157Z,96972.28
2022-11-28T07:44:00.313Z,96968.94
2022-11-28T07:46:29.935Z,96969.06
2022-11-28T07:48:58.677Z,96970.22
2022-11-28T07:51:28.699Z,96975.00
2022-11-28T07:53:57.848Z,96969.53
2022-11-28T07:56:50.198Z,96972.94
2022-11-28T07:59:18.488Z,96975.72
2022-11-28T08:01:48.974Z,96978.63
2022-11-28T08:04:17.870Z,96973.50
2022-11-28T08:06:48.465Z,96974.88
2022-11-28T08:09:18.536Z,96964.69
2022-11-28T08:11:49.536Z,96962.91
2022-11-28T08:14:19.606Z,96962.84
2022-11-28T08:16:49.864Z,96972.19
2022-11-28T08:19:23.016Z,96972.91
2022-11-28T08:21:54.455Z,96972.06
2022-11-28T08:24:24.215Z,96978.28
2022-11-28T08:26:54.350Z,96974.28
2022-11-28T08:29:24.334Z,96977.84
2022-11-28T08:31:53.389Z,96974.59
2022-11-28T08:34:22.518Z,96970.84
2022-11-28T08:36:52.058Z,96979.44
2022-11-28T08:39:25.346Z,96973.16
2022-11-28T08:42:00.904Z,96979.50
2022-11-28T08:44:30.746Z,96975.47
2022-11-28T08:47:00.759Z,96969.81
2022-11-28T08:49:29.704Z,96979.38
2022-11-28T08:51:59.040Z,96974.53
2022-11-28T08:54:29.453Z,96974.03
2022-11-28T08:57:09.642Z,96974.38
2022-11-28T08:59:47.845Z,96983.38
2022-11-28T09:02:26.230Z,96984.44
2022-11-28T09:04:56.401Z,96985.00
2022-11-28T09:07:34.554Z,96982.53
2022-11-28T09:10:04.793Z,96989.53
2022-11-28T09:12:58.989Z,96999.31
2022-11-28T09:15:29.926Z,97001.81
2022-11-28T09:17:59.447Z,96995.72
2022-11-28T09:20:29.018Z,96994.41
2022-11-28T09:23:00.011Z,96994.03
2022-11-28T09:25:33.487Z,96997.41
2022-11-28T09:28:08.358Z,97006.47
2022-11-28T09:30:38.464Z,97004.03
2022-11-28T09:33:07.730Z,97006.97
2022-11-28T09:35:56.561Z,97009.84
2022-11-28T09:38:26.240Z,97008.16
2022-11-28T09:40:55.711Z,97009.00
2022-11-28T09:43:31.180Z,97010.72
2022-11-28T09:46:05.716Z,97003.81
2022-11-28T09:48:44.070Z,97011.66
2022-11-28T09:51:17.918Z,97003.47
2022-11-28T09:53:49.028Z,97003.34
2022-11-28T09:56:20.730Z,97010.63
2022-11-28T09:58:56.902Z,97009.28
2022-11-28T10:01:29.570Z,97006.72
2022-11-28T10:04:01.833Z,97009.88
2022-11-28T10:06:32.000Z,97014.97
2022-11-28T10:09:10.359Z,97005.19
2022-11-28T10:11:48.023Z,97010.09
2022-11-28T10:14:32.749Z,97012.16
2022-11-28T10:17:04.622Z,97014.22
2022-11-28T10:22:27.649Z,97013.00
2022-11-28T10:24:59.921Z,97017.03
2022-11-28T10:27:37.021Z,97013.75
2022-11-28T10:30:28.548Z,97006.09
2022-11-28T10:33:01.083Z,97003.00
2022-11-28T10:35:35.228Z,97009.66
2022-11-28T10:38:06.286Z,97011.09
2022-11-28T10:40:38.809Z,97013.53
2022-11-28T10:43:11.169Z,97008.53
2022-11-28T10:45:48.263Z,97013.25
2022-11-28T10:48:41.352Z,97004.78
2022-11-28T10:51:20.788Z,97011.22
2022-11-28T10:53:56.787Z,97015.88
2022-11-28T10:56:45.274Z,97011.91
2022-11-28T10:59:20.492Z,97019.66
2022-11-28T11:01:55.424Z,97011.66
2022-11-28T11:04:42.971Z,97019.91
2022-11-28T11:07:19.506Z,97016.88
2022-11-28T11:09:52.234Z,97022.56
2022-11-28T11:12:22.820Z,97020.88
2022-11-28T11:14:51.908Z,97027.53
2022-11-28T11:17:34.361Z,97020.28
2022-11-28T11:20:07.054Z,97014.09
2022-11-28T11:22:35.943Z,97019.19
2022-11-28T11:28:13.436Z,97023.78
2022-11-28T11:31:01.329Z,97018.34
2022-11-28T11:33:38.804Z,97018.06
2022-11-28T11:36:23.193Z,97026.09
2022-11-28T11:39:15.689Z,97013.75
2022-11-28T11:42:03.032Z,97016.41
2022-11-28T11:44:35.159Z,97017.50
2022-11-28T11:47:05.653Z,97022.94
2022-11-28T11:49:37.478Z,97015.22
2022-11-28T11:52:11.155Z,97020.88
2022-11-28T11:54:40.125Z,97019.28
2022-11-28T11:57:31.920Z,97019.06
2022-11-28T12:00:01.635Z,97025.59
2022-11-28T12:02:34.019Z,97018.13
2022-11-28T12:05:14.300Z,97022.44
2022-11-28T12:07:49.897Z,97023.19
2022-11-28T12:10:20.718Z,97022.47
2022-11-28T12:12:49.456Z,97021.13
2022-11-28T12:15:37.431Z,97022.09
2022-11-28T12:18:16.632Z,97019.44
2022-11-28T12:20:56.366Z,97022.59
2022-11-28T12:23:38.126Z,97025.00
2022-11-28T12:26:11.129Z,97023.66
2022-11-28T12:28:47.423Z,97030.56
2022-11-28T12:31:19.298Z,97029.84
2022-11-28T12:33:58.169Z,97024.03
2022-11-28T12:36:35.206Z,97026.56
2022-11-28T12:39:15.141Z,97030.78
2022-11-28T12:42:14.312Z,97021.97
2022-11-28T12:44:56.859Z,97023.41
2022-11-28T12:47:38.050Z,97020.50
2022-11-28T12:50:29.401Z,97024.16
2022-11-28T12:53:04.820Z,97029.47
2022-11-28T12:55:37.522Z,97022.56
2022-11-28T12:58:09.931Z,97015.34
2022-11-28T13:00:50.776Z,97019.94
2022-11-28T13:03:28.048Z,97014.34
2022-11-28T13:06:00.174Z,97022.22
2022-11-28T13:08:48.858Z,97017.25
2022-11-28T13:11:27.800Z,97024.53
2022-11-28T13:13:58.255Z,97023.28
2022-11-28T13:16:31.123Z,97019.78
2022-11-28T13:19:04.932Z,97020.28
2022-11-28T13:21:40.369Z,97017.97
2022-11-28T13:24:15.120Z,97019.66
2022-11-28T13:26:47.800Z,97022.56
2022-11-28T13:29:23.645Z,97031.56
2022-11-28T13:32:02.540Z,97026.09
2022-11-28T13:34:31.593Z,97023.81
2022-11-28T13:40:00.173Z,97026.56
2022-11-28T13:43:02.178Z,97024.63
2022-11-28T13:45:30.209Z,97033.00
2022-11-28T13:48:01.158Z,97038.81
2022-11-28T13:50:36.642Z,97025.13
2022-11-28T13:53:23.094Z,97023.56
2022-11-28T13:56:11.292Z,97023.31
2022-11-28T13:58:47.547Z,97025.50
2022-11-28T14:01:24.333Z,97017.63
2022-11-28T14:03:55.744Z,97023.75
2022-11-28T14:06:28.749Z,97025.47
2022-11-28T14:09:06.278Z,97022.44
2022-11-28T14:14:45.568Z,97025.66
2022-11-28T14:17:25.775Z,97025.44
2022-11-28T14:20:02.152Z,97029.50
2022-11-28T14:22:39.284Z,97034.28
2022-11-28T14:25:15.699Z,97039.50
2022-11-28T14:27:53.963Z,97037.47
2022-11-28T14:30:32.520Z,97036.03
2022-11-28T14:33:20.396Z,97039.16
2022-11-28T14:36:19.651Z,97050.91
2022-11-28T14:38:49.246Z,97055.88
2022-11-28T14:41:19.812Z,97049.47
2022-11-28T14:43:48.601Z,97055.88
2022-11-28T14:46:27.326Z,97055.47
2022-11-28T14:49:18.352Z,97062.28
2022-11-28T14:52:37.851Z,97064.59
2022-11-28T14:55:06.276Z,97057.91
2022-11-28T14:57:36.846Z,97061.19
2022-11-28T15:00:13.715Z,97062.88
2022-11-28T15:02:56.132Z,97060.69
2022-11-28T15:05:32.319Z,97065.19
2022-11-28T15:08:18.353Z,97071.59
2022-11-28T15:10:51.683Z,97069.41
2022-11-28T15:13:32.162Z,97070.16
2022-11-28T15:16:02.900Z,97074.75
2022-11-28T15:18:34.395Z,97072.81
2022-11-28T15:21:05.479Z,97072.81
2022-11-28T15:23:38.638Z,97078.75
2022-11-28T15:26:07.537Z,97073.91
2022-11-28T15:28:38.549Z,97079.34
2022-11-28T15:31:07.464Z,97078.38
2022-11-28T15:33:37.600Z,97070.63
2022-11-28T15:36:24.803Z,97074.00
2022-11-28T15:39:11.825Z,97073.28
2022-11-28T15:41:40.660Z,97075.94
2022-11-28T15:44:13.895Z,97083.44
2022-11-28T15:46:45.180Z,97082.84
2022-11-28T15:49:27.708Z,97086.34
2022-11-28T15:51:57.136Z,97078.59
2022-11-28T15:54:33.032Z,97080.31
2022-11-28T15:57:02.278Z,97081.16
2022-11-28T15:59:30.950Z,97084.28
2022-11-28T16:02:01.679Z,97085.75
2022-11-28T16:04:32.786Z,97091.06
2022-11-28T16:07:02.334Z,97091.91
2022-11-28T16:09:36.738Z,97094.47
2022-11-28T16:12:05.952Z,97093.75
2022-11-28T16:14:35.908Z,97095.53
2022-11-28T16:17:06.905Z,97099.88
2022-11-28T16:19:38.153Z,97103.03
2022-11-28T16:22:11.340Z,97110.28
2022-11-28T16:24:46.519Z,97105.94
2022-11-28T16:27:30.300Z,97104.28
2022-11-28T16:29:59.054Z,97108.59
2022-11-28T16:32:39.045Z,97107.06
2022-11-28T16:35:16.655Z,97110.34
2022-11-28T16:37:56.929Z,97111.53
2022-11-28T16:40:25.741Z,97112.63
2022-11-28T16:42:54.652Z,97121.53
2022-11-28T16:45:27.550Z,97121.56
2022-11-28T16:47:57.378Z,97117.31
2022-11-28T16:50:27.584Z,97118.25
2022-11-28T16:52:57.895Z,97122.75
2022-11-28T16:55:41.321Z,97127.91
2022-11-28T16:58:13.053Z,97125.78
2022-11-28T17:00:44.726Z,97121.88
2022-11-28T17:03:41.792Z,97119.44
2022-11-28T17:06:17.185Z,97114.47
2022-11-28T17:08:51.471Z,97117.78
2022-11-28T17:11:41.848Z,97126.28
2022-11-28T17:14:17.847Z,97115.50
2022-11-28T17:16:48.094Z,97115.63
2022-11-28T17:19:18.164Z,97127.34
2022-11-28T17:21:54.797Z,97126.63
2022-11-28T17:24:26.165Z,97128.50
2022-11-28T17:26:56.779Z,97132.53
2022-11-28T17:29:29.383Z,97132.28
2022-11-28T17:32:03.422Z,97139.81
2022-11-28T17:34:38.134Z,97140.16
2022-11-28T17:40:08.807Z,97134.72
2022-11-28T17:42:39.623Z,97146.63
2022-11-28T17:45:23.499Z,97144.88
2022-11-28T17:47:52.440Z,97145.59
2022-11-28T17:50:38.951Z,97146.78
2022-11-28T17:53:09.400Z,97149.34
2022-11-28T17:55:39.907Z,97154.88
2022-11-28T18:01:00.529Z,97161.28
2022-11-28T18:03:30.786Z,97155.09
2022-11-28T18:06:17.160Z,97152.84
2022-11-28T18:08:48.795Z,97157.22
2022-11-28T18:11:19.863Z,97163.63
2022-11-28T18:13:50.901Z,97163.38
2022-11-28T18:16:20.652Z,97155.94
2022-11-28T18:18:50.865Z,97153.56
2022-11-28T18:21:19.548Z,97151.00
2022-11-28T18:23:51.148Z,97158.41
2022-11-28T18:26:20.755Z,97155.84
2022-11-28T18:29:06.875Z,97154.66
2022-11-28T18:31:36.896Z,97161.69
2022-11-28T18:34:07.406Z,97164.47
2022-11-28T18:36:37.016Z,97159.63
2022-11-28T18:39:09.156Z,97163.50
2022-11-28T18:41:40.111Z,97170.53
2022-11-28T18:44:09.037Z,97168.84
2022-11-28T18:46:40.721Z,97170.66
2022-11-28T18:49:09.522Z,97173.19
2022-11-28T18:54:28.594Z,97174.16
2022-11-28T18:56:57.791Z,97171.81
2022-11-28T18:59:27.965Z,97180.19
2022-11-28T19:01:56.634Z,97181.50
2022-11-28T19:04:25.817Z,97178.00
2022-11-28T19:06:55.484Z,97182.72
2022-11-28T19:09:25.818Z,97178.75
2022-11-28T19:11:55.545Z,97192.13
2022-11-28T19:14:26.008Z,97189.03
2022-11-28T19:16:54.809Z,97184.97
2022-11-28T19:19:28.054Z,97187.97
2022-11-28T19:22:00.459Z,97187.50
2022-11-28T19:24:31.380Z,97181.00
2022-11-28T19:27:00.948Z,97188.38
2022-11-28T19:29:32.681Z,97177.13
2022-11-28T19:32:03.734Z,97179.50
2022-11-28T19:34:33.936Z,97178.84
2022-11-28T19:37:20.330Z,97188.53
2022-11-28T19:39:51.759Z,97188.88
2022-11-28T19:42:21.050Z,97190.25
2022-11-28T19:44:50.110Z,97188.56
2022-11-28T19:47:20.147Z,97190.44
2022-11-28T19:49:48.994Z,97194.19
2022-11-28T19:52:20.054Z,97193.91
2022-11-28T19:55:09.456Z,97197.78
2022-11-28T19:57:38.270Z,97202.88
2022-11-28T20:00:08.270Z,97195.09
2022-11-28T20:02:37.597Z,97203.34
2022-11-28T20:05:11.063Z,97197.16
2022-11-28T20:07:42.729Z,97201.34
2022-11-28T20:10:13.605Z,97207.22
2022-11-28T20:12:42.660Z,97206.69
2022-11-28T20:15:17.915Z,97202.06
2022-11-28T20:17:47.307Z,97203.63
2022-11-28T20:20:17.208Z,97207.41
2022-11-28T20:22:46.224Z,97210.06
2022-11-28T20:25:20.991Z,97208.13
2022-11-28T20:27:50.036Z,97213.22
2022-11-28T20:30:19.906Z,97208.44
2022-11-28T20:32:48.720Z,97212.63
2022-11-28T20:35:19.441Z,97212.69
2022-11-28T20:37:57.546Z,97208.94
2022-11-28T20:40:28.740Z,97217.25
2022-11-28T20:42:57.699Z,97218.09
2022-11-28T20:45:27.910Z,97224.47
2022-11-28T20:48:14.089Z,97222.47
2022-11-28T20:50:48.070Z,97219.81
2022-11-28T20:53:19.873Z,97223.75
2022-11-28T20:56:22.710Z,97222.00
2022-11-28T20:58:51.608Z,97226.31
2022-11-28T21:01:22.306Z,97223.91
2022-11-28T21:03:51.344Z,97230.72
2022-11-28T21:06:20.953Z,97233.63
2022-11-28T21:08:49.634Z,97218.28
2022-11-28T21:11:43.836Z,97224.84
2022-11-28T21:14:12.131Z,97218.56
2022-11-28T21:16:41.325Z,97223.44
2022-11-28T21:19:10.422Z,97221.88
2022-11-28T21:21:39.938Z,97224.09
2022-11-28T21:24:10.363Z,97227.88
2022-11-28T21:26:43.165Z,97219.34
2022-11-28T21:29:13.724Z,97225.53
2022-11-28T21:31:43.670Z,97223.41
2022-11-28T21:34:14.849Z,97221.81
2022-11-28T21:36:43.988Z,97220.91
2022-11-28T21:39:14.638Z,97228.75
2022-11-28T21:44:32.322Z,97228.66
2022-11-28T21:47:01.621Z,97231.59
2022-11-28T21:49:30.328Z,97231.41
2022-11-28T21:51:59.294Z,97231.97
2022-11-28T21:54:28.258Z,97234.78
2022-11-28T21:57:02.447Z,97232.75
2022-11-28T21:59:31.228Z,97235.31
2022-11-28T22:01:59.995Z,97234.47
2022-11-28T22:04:28.787Z,97233.81
2022-11-28T22:06:57.419Z,97244.06
2022-11-28T22:09:34.695Z,97236.22
2022-11-28T22:12:05.239Z,97236.81
2022-11-28T22:14:36.789Z,97242.44
2022-11-28T22:17:07.823Z,97245.81
2022-11-28T22:19:36.513Z,97245.91
2022-11-28T22:22:07.018Z,97250.41
2022-11-28T22:24:35.697Z,97247.44
2022-11-28T22:27:06.119Z,97249.25
2022-11-28T22:29:35.247Z,97258.06
2022-11-28T22:32:22.078Z,97253.75
2022-11-28T22:34:51.077Z,97248.41
2022-11-28T22:37:19.776Z,97254.34
2022-11-28T22:42:37.148Z,97251.59
2022-11-28T22:45:06.695Z,97260.72
2022-11-28T22:47:37.739Z,97263.03
2022-11-28T22:50:07.306Z,97263.66
2022-11-28T22:52:35.986Z,97266.19
2022-11-28T22:55:04.674Z,97269.06
2022-11-28T22:57:33.385Z,97257.84
2022-11-28T23:00:03.741Z,97270.16
2022-11-28T23:02:32.784Z,97266.53
2022-11-28T23:05:01.889Z,97267.50
2022-11-28T23:07:33.417Z,97273.81
2022-11-28T23:10:04.318Z,97267.69
2022-11-28T23:12:34.506Z,97267.97
2022-11-28T23:15:04.666Z,97273.03
2022-11-28T23:17:34.455Z,97270.50
2022-11-28T23:20:04.062Z,97271.13
2022-11-28T23:22:34.545Z,97271.22
2022-11-28T23:25:03.618Z,97266.31
2022-11-28T23:27:32.328Z,97264.94
2022-11-28T23:30:05.012Z,97269.38
2022-11-28T23:32:35.379Z,97272.19
2022-11-28T23:35:04.568Z,97272.25
2022-11-28T23:37:35.316Z,97267.38
2022-11-28T23:40:07.329Z,97278.47
2022-11-28T23:42:36.069Z,97268.34
2022-11-28T23:45:04.818Z,97268.09
2022-11-28T23:47:34.897Z,97269.13
2022-11-28T23:50:05.253Z,97272.53
2022-11-28T23:52:33.966Z,97268.63
2022-11-28T23:55:02.805Z,97264.13
2022-11-28T23:57:32.293Z,97264.78
